This is the latest recevied weather packets stored in our database for station/object VE3ZEB-1. If no packets are shown the sender has not sent any weather packets the latest 10 day(s).
| Time | Temp. | Humidity | Pressure | Rain* | Wind** | Luminosity | Snow |
|---|---|---|---|---|---|---|---|
| 1777947022 | 16.67° C | 74% | 679.8 hPa | 0.25 mm | - | 0 W/m² | - |
| 1777942223 | 18.33° C | 61% | 679.9 hPa | 0 mm | - | 0 W/m² | - |
| 1777934425 | 21.67° C | 48% | 680 hPa | 0 mm | - | 143 W/m² | - |
| 1777927227 | 23.33° C | 42% | 680.1 hPa | 0 mm | - | 173 W/m² | - |
| 1777926627 | 23.33° C | 45% | 680.1 hPa | 0 mm | - | 228 W/m² | - |
| 1777926027 | 22.78° C | 45% | 680 hPa | 0 mm | - | 246 W/m² | - |
| 1777925447 | 22.78° C | 46% | 680 hPa | 0 mm | - | 266 W/m² | - |
| 1777923628 | 22.78° C | 47% | 680 hPa | 0 mm | - | 293 W/m² | - |
| 1777921228 | 22.78° C | 47% | 680 hPa | 0 mm | - | 533 W/m² | - |
| 1777920028 | 22.78° C | 47% | 680 hPa | 0 mm | - | 618 W/m² | - |
| 1777918818 | 22.78° C | 47% | 680.1 hPa | 0 mm | - | 845 W/m² | - |
| 1777917018 | 23.89° C | 44% | 680.1 hPa | 0 mm | - | 907 W/m² | - |
| 1777915819 | 23.89° C | 42% | 680.1 hPa | 0 mm | - | 928 W/m² | - |
| 1777914619 | 23.89° C | 42% | 680.1 hPa | 0 mm | - | 922 W/m² | - |
| 1777914019 | 24.44° C | 44% | 680.1 hPa | 0 mm | - | 915 W/m² | - |
| 1777910420 | 23.89° C | 48% | 680.1 hPa | 0 mm | - | 850 W/m² | - |
| 1777908020 | 21.67° C | 53% | 680 hPa | 0 mm | - | 745 W/m² | - |
| 1777903222 | 15.56° C | 66% | 679.7 hPa | 0 mm | - | 309 W/m² | - |
| 1777902622 | 15° C | 66% | 679.6 hPa | 0 mm | - | 348 W/m² | - |
| 1777902042 | 14.44° C | 66% | 679.6 hPa | 0 mm | - | 319 W/m² | - |
| 1777901418 | 13.89° C | 68% | 679.6 hPa | 0 mm | - | 229 W/m² | - |
| 1777900818 | 13.33° C | 69% | 679.6 hPa | 0 mm | - | 124 W/m² | - |
| 1777900218 | 12.78° C | 70% | 679.6 hPa | 0 mm | - | 113 W/m² | - |
| 1777897858 | 10.56° C | 76% | 679.5 hPa | 0 mm | - | 116 W/m² | - |
| 1777896038 | 9.44° C | 76% | 679.4 hPa | 0 mm | - | 78 W/m² | - |
* Rain latest hour (hover to see other rain measurements)
** Current wind speed in m/s (hover to see current wind gust speed)